Time;durP1;ratioP1;P1;durP2;ratioP2;P2;SDS_P1;SDS_P2;PMS_P1;PMS_P2;Temp;Humidity;BMP_temperature;BMP_pressure;BME280_temperature;BME280_humidity;BME280_pressure;Samples;Min_cycle;Max_cycle;Signal;HPM_P1;HPM_P2
2024/02/22 00:01:31;;;;;;;4.90;0.57;;;12.80;99.90;;;12.24;100.00;99948.81;4152259;28;20033;-74
2024/02/22 00:03:32;;;;;;;3.33;0.80;;;12.80;99.90;;;12.25;100.00;99953.06;4164964;28;20021;-74
2024/02/22 00:05:33;;;;;;;6.00;1.08;;;12.80;99.90;;;12.30;100.00;99952.53;4168715;28;20032;-74
2024/02/22 00:07:33;;;;;;;4.88;0.73;;;12.80;99.90;;;12.30;100.00;99945.41;4167456;28;20025;-74
2024/02/22 00:09:35;;;;;;;2.90;0.68;;;12.80;99.90;;;12.30;100.00;99939.31;4168529;28;20034;-74
2024/02/22 00:11:36;;;;;;;4.22;1.15;;;12.90;99.90;;;12.25;100.00;99939.84;4168580;28;20080;-74
2024/02/22 00:13:37;;;;;;;2.67;0.50;;;12.80;99.90;;;12.26;100.00;99930.91;4167186;28;20513;-74
2024/02/22 00:15:38;;;;;;;2.20;0.55;;;12.80;99.90;;;12.27;100.00;99934.38;4150898;28;20022;-73
2024/02/22 00:17:38;;;;;;;3.75;0.70;;;12.80;99.90;;;12.29;100.00;99921.78;4167628;28;20033;-74
2024/02/22 00:19:40;;;;;;;7.10;0.70;;;12.80;99.90;;;12.26;100.00;99901.84;4152105;28;20449;-74
2024/02/22 00:21:40;;;;;;;3.85;0.60;;;12.80;99.90;;;12.26;100.00;99919.53;4152344;28;20033;-74
2024/02/22 00:23:41;;;;;;;4.70;0.70;;;12.80;99.90;;;12.32;100.00;99897.63;4159364;28;20026;-74
2024/02/22 00:25:42;;;;;;;4.22;0.70;;;12.80;99.90;;;12.27;100.00;99897.38;4152184;28;20037;-74
2024/02/22 00:27:43;;;;;;;8.25;0.98;;;12.80;99.90;;;12.31;100.00;99898.63;4153988;28;20037;-74
2024/02/22 00:29:44;;;;;;;2.35;1.00;;;12.80;99.90;;;12.24;100.00;99871.31;4155204;28;20030;-74
2024/02/22 00:31:45;;;;;;;4.38;0.82;;;12.80;99.90;;;12.29;100.00;99875.00;4154353;28;20018;-74
2024/02/22 00:33:46;;;;;;;8.52;0.75;;;12.80;99.90;;;12.26;100.00;99874.56;4160229;28;20037;-74
2024/02/22 00:35:46;;;;;;;6.75;1.98;;;12.80;99.90;;;12.27;100.00;99853.25;4155285;28;20470;-74
2024/02/22 00:37:47;;;;;;;3.70;0.73;;;12.80;99.90;;;12.25;100.00;99836.72;4155287;28;20026;-74
2024/02/22 00:39:48;;;;;;;5.32;0.70;;;12.80;99.90;;;12.23;100.00;99837.94;4144290;28;20036;-74
2024/02/22 00:41:49;;;;;;;2.45;0.80;;;12.80;99.90;;;12.23;100.00;99837.94;4160396;28;20029;-74
2024/02/22 00:43:53;;;;;;;7.53;0.90;;;12.80;99.90;;;12.25;100.00;99838.53;4157263;28;20041;-74
2024/02/22 00:45:54;;;;;;;6.53;0.95;;;12.80;99.90;;;12.26;100.00;99837.53;4160311;28;20026;-74
2024/02/22 00:47:58;;;;;;;3.58;0.85;;;12.80;99.90;;;12.27;100.00;99839.19;4153983;28;20093;-75
2024/02/22 00:49:59;;;;;;;4.18;0.98;;;12.80;99.90;;;12.29;100.00;99832.72;4155166;28;20088;-74
2024/02/22 00:52:00;;;;;;;3.70;0.70;;;12.80;99.90;;;12.26;100.00;99834.91;4155058;28;20030;-74
2024/02/22 00:54:01;;;;;;;6.60;1.55;;;12.80;99.90;;;12.26;100.00;99832.25;4158804;28;20137;-73
2024/02/22 00:56:02;;;;;;;8.13;1.20;;;12.80;99.90;;;12.25;100.00;99815.56;4163020;28;20026;-74
2024/02/22 00:58:03;;;;;;;12.45;1.60;;;12.80;99.90;;;12.27;100.00;99810.09;4155217;28;20022;-73
2024/02/22 01:00:06;;;;;;;10.07;1.70;;;12.80;99.90;;;12.27;100.00;99799.53;4169785;28;20035;-74
2024/02/22 01:02:07;;;;;;;10.03;1.53;;;12.80;99.90;;;12.30;100.00;99807.09;4171314;28;20124;-74
2024/02/22 01:04:10;;;;;;;13.27;1.88;;;12.80;99.90;;;12.28;100.00;99801.97;4164422;28;20269;-74
2024/02/22 01:06:13;;;;;;;8.07;1.27;;;12.80;99.90;;;12.26;100.00;99809.28;4154894;28;20034;-74
2024/02/22 01:08:14;;;;;;;6.88;1.25;;;12.80;99.90;;;12.35;100.00;99800.22;4157143;28;20034;-74
2024/02/22 01:10:15;;;;;;;13.13;1.77;;;12.90;99.90;;;12.34;100.00;99797.75;4154811;28;20041;-74
2024/02/22 01:12:16;;;;;;;12.48;2.08;;;12.90;99.90;;;12.26;100.00;99779.38;4157179;28;20030;-74
2024/02/22 01:14:19;;;;;;;10.93;2.65;;;12.90;99.90;;;12.27;100.00;99787.13;4169878;28;20021;-74
2024/02/22 01:16:20;;;;;;;8.75;1.50;;;12.90;99.90;;;12.29;100.00;99794.88;4154940;28;20014;-74
2024/02/22 01:18:21;;;;;;;9.70;1.35;;;12.80;99.90;;;12.29;100.00;99777.19;4158745;28;20082;-74
2024/02/22 01:20:22;;;;;;;8.57;2.38;;;12.80;99.90;;;12.29;100.00;99757.84;4169939;28;20025;-74
2024/02/22 01:22:23;;;;;;;10.75;3.15;;;12.80;99.90;;;12.25;100.00;99751.28;4163727;28;20021;-74
2024/02/22 01:24:24;;;;;;;13.95;1.60;;;12.80;99.90;;;12.26;100.00;99739.72;4169598;28;20033;-73
2024/02/22 01:26:25;;;;;;;10.35;1.50;;;12.80;99.90;;;12.29;100.00;99739.34;4170908;28;20037;-74
2024/02/22 01:28:26;;;;;;;6.38;1.38;;;12.90;99.90;;;12.23;100.00;99732.16;4170836;28;20033;-74
2024/02/22 01:30:27;;;;;;;5.13;2.00;;;12.80;99.90;;;12.26;100.00;99732.59;4170509;28;20036;-74
2024/02/22 01:32:28;;;;;;;9.10;1.75;;;12.80;99.90;;;12.23;100.00;99732.97;4170559;28;20018;-74
2024/02/22 01:34:29;;;;;;;8.48;1.85;;;12.80;99.90;;;12.21;100.00;99735.81;4154457;28;20022;-74
2024/02/22 01:36:30;;;;;;;7.05;1.55;;;12.80;99.90;;;12.26;100.00;99715.91;4154373;28;20034;-74
2024/02/22 01:38:30;;;;;;;12.40;2.10;;;12.80;99.90;;;12.26;100.00;99737.88;4153715;28;20508;-74
2024/02/22 01:40:31;;;;;;;13.10;2.40;;;12.80;99.90;;;12.29;100.00;99736.69;4153113;28;20472;-74
2024/02/22 01:42:32;;;;;;;9.75;1.73;;;12.90;99.90;;;12.31;100.00;99735.47;4154294;28;20021;-74
2024/02/22 01:44:33;;;;;;;13.95;4.40;;;12.80;99.90;;;12.29;100.00;99729.56;4153924;28;20509;-74
2024/02/22 01:46:34;;;;;;;9.85;2.60;;;12.80;99.90;;;12.25;100.00;99709.81;4159751;28;20030;-74
2024/02/22 01:48:36;;;;;;;12.52;1.88;;;12.80;99.90;;;12.27;100.00;99699.88;4152797;28;20060;-74
2024/02/22 01:50:39;;;;;;;10.63;1.90;;;12.90;99.90;;;12.27;100.00;99706.97;4152589;28;20045;-74
2024/02/22 01:52:42;;;;;;;4.72;1.10;;;12.80;99.90;;;12.24;100.00;99696.78;4141657;28;20080;-74
2024/02/22 01:54:43;;;;;;;6.22;2.00;;;12.80;99.90;;;12.29;100.00;99700.50;4159813;28;20123;-74
2024/02/22 01:56:45;;;;;;;6.93;1.88;;;12.80;99.90;;;12.25;100.00;99709.81;4153946;28;20030;-74
2024/02/22 01:58:50;;;;;;;9.10;1.08;;;12.80;99.90;;;12.31;100.00;99692.34;4153962;28;20026;-74
2024/02/22 02:00:52;;;;;;;4.32;0.68;;;12.80;99.90;;;12.25;100.00;99693.13;4152664;28;20538;-74
2024/02/22 02:02:53;;;;;;;5.20;1.40;;;12.90;99.90;;;12.30;100.00;99688.09;4160589;28;20109;-74
2024/02/22 02:04:55;;;;;;;8.85;1.35;;;12.90;99.90;;;12.29;100.00;99673.22;4168989;28;20017;-74
2024/02/22 02:06:56;;;;;;;4.82;0.93;;;12.80;99.90;;;12.26;100.00;99673.59;4169077;28;20037;-74
2024/02/22 02:08:57;;;;;;;6.10;1.42;;;12.80;99.90;;;12.25;100.00;99671.97;4153918;28;20077;-74
2024/02/22 02:10:58;;;;;;;5.65;1.42;;;12.80;99.90;;;12.24;100.00;99665.88;4153701;28;20034;-74
2024/02/22 02:13:03;;;;;;;6.95;0.82;;;12.80;99.90;;;12.16;100.00;99647.50;4152615;28;20033;-74
2024/02/22 02:15:05;;;;;;;5.75;1.23;;;12.80;99.90;;;12.25;100.00;99656.09;4153716;28;20026;-74
2024/02/22 02:17:06;;;;;;;7.45;1.02;;;12.80;99.90;;;12.26;100.00;99652.47;4152523;28;20025;-74
2024/02/22 02:19:19;;;;;;;6.38;1.60;;;12.80;99.90;;;12.27;100.00;99656.75;4153642;28;20539;-74
2024/02/22 02:21:38;;;;;;;7.50;0.95;;;12.90;99.90;;;12.27;100.00;99640.88;4153586;28;20076;-74
2024/02/22 02:24:12;;;;;;;6.45;1.67;;;12.80;99.90;;;12.25;100.00;99635.78;4173194;28;20041;-74
2024/02/22 02:26:14;;;;;;;3.90;0.60;;;12.80;99.90;;;12.26;100.00;99633.94;4153576;28;20037;-74
2024/02/22 02:28:15;;;;;;;7.68;0.93;;;12.80;99.90;;;12.27;100.00;99622.38;4153584;28;20113;-74
2024/02/22 02:30:15;;;;;;;6.22;0.77;;;12.90;99.90;;;12.27;100.00;99615.25;4153472;28;20033;-74
2024/02/22 02:32:16;;;;;;;6.90;0.95;;;12.80;99.90;;;12.24;100.00;99607.72;4154615;28;20076;-74
2024/02/22 02:34:17;;;;;;;7.63;0.60;;;12.80;99.90;;;12.25;100.00;99609.31;4168490;28;20021;-74
2024/02/22 02:36:18;;;;;;;5.00;0.88;;;12.80;99.90;;;12.25;100.00;99611.97;4169834;28;20034;-74
2024/02/22 02:38:19;;;;;;;3.85;0.75;;;12.80;99.90;;;12.26;100.00;99603.03;4168588;28;20096;-74
2024/02/22 02:40:20;;;;;;;7.10;0.80;;;12.80;99.90;;;12.24;100.00;99601.59;4169870;28;20036;-74
2024/02/22 02:42:20;;;;;;;6.90;0.90;;;12.80;99.90;;;12.22;100.00;99599.13;4169211;28;20060;-74
2024/02/22 02:44:21;;;;;;;6.70;1.00;;;12.80;99.90;;;12.25;100.00;99588.19;4151807;28;20060;-74
2024/02/22 02:46:22;;;;;;;3.67;0.80;;;12.80;99.90;;;12.23;100.00;99597.31;4159226;28;20030;-74
2024/02/22 02:48:23;;;;;;;5.53;1.02;;;12.80;99.90;;;12.23;100.00;99576.16;4153040;28;20042;-74
2024/02/22 02:50:24;;;;;;;7.15;1.48;;;12.80;99.90;;;12.24;100.00;99589.22;4154940;28;20032;-74
2024/02/22 02:52:25;;;;;;;3.80;0.52;;;12.80;99.90;;;12.28;100.00;99587.78;4167086;28;20033;-74
2024/02/22 02:54:25;;;;;;;3.78;0.75;;;12.90;99.90;;;12.25;100.00;99584.72;4162743;28;20018;-74
2024/02/22 02:56:26;;;;;;;3.60;0.80;;;12.80;99.90;;;12.25;100.00;99568.84;4151935;28;20081;-74
2024/02/22 02:58:27;;;;;;;6.47;0.52;;;12.90;99.90;;;12.22;100.00;99559.47;4168109;28;20021;-74
2024/02/22 03:00:28;;;;;;;3.58;0.95;;;12.80;99.90;;;12.22;100.00;99556.84;4152968;28;20033;-74
2024/02/22 03:02:29;;;;;;;7.28;1.60;;;12.80;99.90;;;12.30;100.00;99561.16;4170638;28;20029;-74
2024/02/22 03:04:30;;;;;;;1.50;0.63;;;12.80;99.90;;;12.24;100.00;99557.47;4159867;28;20045;-74
2024/02/22 03:06:30;;;;;;;3.10;0.98;;;12.80;99.90;;;12.21;100.00;99545.44;4152893;28;20080;-74
2024/02/22 03:08:31;;;;;;;6.97;0.88;;;12.90;99.90;;;12.29;100.00;99543.66;4152863;28;20037;-74
2024/02/22 03:10:32;;;;;;;10.68;0.75;;;12.90;99.90;;;12.32;100.00;99532.69;4167953;28;20029;-74
2024/02/22 03:12:33;;;;;;;5.35;0.40;;;12.90;99.90;;;12.26;100.00;99529.00;4170899;28;20029;-74
2024/02/22 03:14:34;;;;;;;6.30;1.40;;;12.90;99.90;;;12.27;100.00;99524.53;4167923;28;20547;-74
2024/02/22 03:16:37;;;;;;;3.38;0.88;;;12.90;99.90;;;12.30;100.00;99521.50;4152362;28;20030;-74
2024/02/22 03:18:38;;;;;;;4.85;1.23;;;12.90;99.90;;;12.33;100.00;99521.09;4158617;28;20025;-74
2024/02/22 03:20:39;;;;;;;0.60;0.30;;;12.90;99.90;;;12.26;100.00;99505.22;4169106;28;20029;-74
2024/02/22 03:22:40;;;;;;;3.75;0.50;;;12.90;99.90;;;12.27;100.00;99506.03;4167675;28;20022;-74
2024/02/22 03:24:41;;;;;;;9.15;1.40;;;12.90;99.90;;;12.27;100.00;99495.47;4151862;28;20044;-74
2024/02/22 03:26:45;;;;;;;3.33;0.60;;;12.80;99.90;;;12.31;100.00;99491.38;4158357;28;20056;-74
2024/02/22 03:28:46;;;;;;;3.35;0.40;;;12.80;99.90;;;12.28;100.00;99481.19;4167880;28;20036;-74
2024/02/22 03:30:47;;;;;;;2.65;0.43;;;12.90;99.90;;;12.29;100.00;99472.28;4168631;28;20026;-74
2024/02/22 03:32:48;;;;;;;4.45;0.60;;;12.90;99.90;;;12.36;100.00;99470.47;4166174;28;20048;-74
2024/02/22 03:34:49;;;;;;;2.70;0.43;;;12.90;99.90;;;12.29;100.00;99465.16;4152604;28;20018;-74
2024/02/22 03:36:50;;;;;;;3.78;0.47;;;12.90;99.90;;;12.31;100.00;99475.53;4152550;28;20034;-74
2024/02/22 03:38:53;;;;;;;1.25;0.32;;;12.90;99.90;;;12.27;100.00;99467.19;4152619;28;20097;-74
2024/02/22 03:40:53;;;;;;;3.20;0.50;;;12.80;99.90;;;12.29;100.00;99449.28;4152280;28;20040;-74
2024/02/22 03:42:54;;;;;;;2.63;0.75;;;12.80;99.90;;;12.24;100.00;99450.91;4156495;28;20061;-74
2024/02/22 03:44:55;;;;;;;9.93;1.95;;;12.90;99.90;;;12.27;100.00;99442.56;4159877;28;20030;-74
2024/02/22 03:46:56;;;;;;;6.40;0.80;;;12.90;99.90;;;12.29;100.00;99437.91;4156718;28;20026;-74
2024/02/22 03:48:57;;;;;;;4.80;0.90;;;12.90;99.90;;;12.27;100.00;99437.28;4152164;28;20052;-74
2024/02/22 03:50:58;;;;;;;7.50;0.85;;;12.80;99.90;;;12.25;100.00;99431.38;4152334;28;20105;-74
2024/02/22 03:52:59;;;;;;;3.53;0.77;;;12.90;99.90;;;12.22;100.00;99424.66;4156878;28;20547;-74
2024/02/22 03:55:00;;;;;;;10.38;1.42;;;12.80;99.90;;;12.24;100.00;99441.16;4156937;28;20053;-73
2024/02/22 03:57:00;;;;;;;3.30;0.68;;;12.80;99.90;;;12.27;100.00;99437.28;4167272;28;20076;-74
2024/02/22 03:59:06;;;;;;;3.70;0.52;;;12.80;99.90;;;12.30;100.00;99429.78;4152303;28;20490;-74
2024/02/22 04:01:07;;;;;;;4.28;0.60;;;12.90;99.90;;;12.27;100.00;99406.38;4152064;28;20038;-74
2024/02/22 04:03:08;;;;;;;5.63;1.02;;;12.90;99.90;;;12.25;100.00;99400.47;4159065;28;20041;-74
2024/02/22 04:05:09;;;;;;;5.65;0.98;;;12.80;99.90;;;12.24;100.00;99400.66;4167346;28;20030;-74
2024/02/22 04:07:10;;;;;;;1.30;0.32;;;12.80;99.90;;;12.25;100.00;99397.00;4168737;28;20028;-74
2024/02/22 04:09:11;;;;;;;5.72;0.80;;;12.80;99.90;;;12.24;100.00;99403.31;4167405;28;20025;-74
2024/02/22 04:11:12;;;;;;;5.97;0.82;;;12.80;99.90;;;12.24;100.00;99390.09;4183835;28;20104;-74
2024/02/22 04:13:13;;;;;;;5.50;0.90;;;12.80;99.90;;;12.26;100.00;99382.75;4167003;28;20040;-74
2024/02/22 04:15:14;;;;;;;4.05;0.60;;;12.90;99.90;;;12.31;100.00;99390.91;4150996;28;20022;-74
2024/02/22 04:17:15;;;;;;;7.47;0.75;;;12.80;99.90;;;12.35;100.00;99392.16;4152450;28;20109;-74
2024/02/22 04:19:16;;;;;;;4.30;0.60;;;12.90;99.90;;;12.18;100.00;99360.78;4152406;28;20022;-73
2024/02/22 04:21:16;;;;;;;2.05;0.50;;;12.80;99.90;;;12.26;100.00;99383.59;4152038;28;20049;-74
2024/02/22 04:23:17;;;;;;;4.25;0.60;;;12.80;99.90;;;12.30;100.00;99368.97;4155433;28;20018;-74
2024/02/22 04:25:18;;;;;;;3.75;0.57;;;12.80;99.90;;;12.24;100.00;99361.00;4150905;28;20026;-74
2024/02/22 04:27:19;;;;;;;3.67;1.25;;;12.80;99.90;;;12.29;100.00;99372.63;4152254;28;20026;-74
2024/02/22 04:29:20;;;;;;;2.85;0.40;;;12.80;99.90;;;12.31;100.00;99365.28;4151773;28;20096;-74
2024/02/22 04:31:21;;;;;;;4.13;1.13;;;12.90;99.90;;;12.32;100.00;99358.19;4150963;28;20030;-74
2024/02/22 04:33:22;;;;;;;1.30;0.40;;;12.80;99.90;;;12.32;100.00;99355.53;4168797;28;20087;-74
2024/02/22 04:35:23;;;;;;;2.45;0.45;;;12.90;99.90;;;12.37;100.00;99345.16;4167367;28;20021;-74
2024/02/22 04:37:24;;;;;;;5.55;0.88;;;12.90;99.90;;;12.30;100.00;99339.88;4151974;28;20397;-74
2024/02/22 04:39:25;;;;;;;3.33;0.40;;;12.90;99.90;;;12.35;100.00;99339.25;4137963;28;20479;-74
2024/02/22 04:41:26;;;;;;;4.93;0.50;;;12.90;99.90;;;12.29;100.00;99305.69;4160623;28;20469;-74
2024/02/22 04:43:26;;;;;;;4.32;0.95;;;12.90;99.90;;;12.37;100.00;99339.88;4176618;28;20036;-74
2024/02/22 04:45:27;;;;;;;1.42;0.38;;;12.90;99.90;;;12.32;100.00;99319.34;4160522;28;20068;-74
2024/02/22 04:47:28;;;;;;;3.38;0.95;;;12.90;99.90;;;12.31;100.00;99322.97;4166636;28;20083;-73
2024/02/22 04:49:29;;;;;;;4.03;0.50;;;12.90;99.90;;;12.34;100.00;99311.19;4167952;28;20512;-74
2024/02/22 04:51:33;;;;;;;5.63;0.40;;;12.90;99.90;;;12.32;100.00;99297.34;4168348;28;20543;-74
2024/02/22 04:53:34;;;;;;;4.47;1.15;;;12.90;99.90;;;12.32;100.00;99307.94;4168110;28;20024;-73
2024/02/22 04:55:35;;;;;;;3.40;0.55;;;12.80;99.90;;;12.27;100.00;99297.16;4166423;28;20021;-74
2024/02/22 04:57:36;;;;;;;2.10;0.75;;;12.90;99.90;;;12.27;100.00;99300.63;4150768;28;20100;-74
2024/02/22 04:59:37;;;;;;;6.72;0.70;;;12.90;99.90;;;12.33;100.00;99283.94;4161039;28;20030;-74
2024/02/22 05:01:39;;;;;;;5.20;0.95;;;12.90;99.90;;;12.37;100.00;99300.19;4167953;28;20025;-74
2024/02/22 05:03:40;;;;;;;4.18;0.90;;;12.90;99.90;;;12.30;100.00;99300.22;4166680;28;20048;-74
2024/02/22 05:05:41;;;;;;;7.60;1.15;;;12.90;99.90;;;12.27;100.00;99295.34;4151853;28;20042;-74
2024/02/22 05:07:42;;;;;;;9.45;1.02;;;12.90;99.90;;;12.30;100.00;99267.66;4150614;28;20061;-74
2024/02/22 05:09:42;;;;;;;5.10;0.90;;;12.90;99.90;;;12.29;100.00;99280.06;4151657;28;20022;-74
2024/02/22 05:11:47;;;;;;;7.55;0.90;;;12.90;99.90;;;12.32;100.00;99268.28;4151672;28;20489;-74
2024/02/22 05:13:50;;;;;;;5.70;0.90;;;12.80;99.90;;;12.25;100.00;99275.38;4158100;28;20030;-74
2024/02/22 05:15:50;;;;;;;7.00;1.10;;;12.90;99.90;;;12.28;100.00;99274.97;4152906;28;20060;-74
2024/02/22 05:17:52;;;;;;;8.32;1.00;;;12.90;99.90;;;12.32;100.00;99265.63;4166490;28;20033;-74
2024/02/22 05:19:53;;;;;;;11.65;1.55;;;12.90;99.90;;;12.36;100.00;99269.50;4153415;28;20052;-74
2024/02/22 05:21:53;;;;;;;7.97;1.35;;;12.90;99.90;;;12.33;100.00;99256.69;4169705;28;20025;-73
2024/02/22 05:23:54;;;;;;;9.15;1.33;;;12.90;99.90;;;12.29;100.00;99240.41;4165224;28;20489;-74
2024/02/22 05:25:55;;;;;;;7.43;1.38;;;12.90;99.90;;;12.19;100.00;99230.25;4169641;28;20468;-73
2024/02/22 05:27:56;;;;;;;9.88;1.50;;;12.90;99.90;;;12.23;100.00;99216.63;4170723;28;20489;-74
2024/02/22 05:29:57;;;;;;;14.38;1.98;;;12.80;99.90;;;12.26;100.00;99229.44;4170579;28;20459;-74
2024/02/22 05:31:58;;;;;;;6.78;1.05;;;12.80;99.90;;;12.29;100.00;99229.03;4169359;28;20111;-74
2024/02/22 05:33:58;;;;;;;6.45;1.48;;;12.80;99.90;;;12.25;100.00;99217.22;4169273;28;20097;-74
2024/02/22 05:35:59;;;;;;;8.27;1.35;;;12.90;99.90;;;12.31;100.00;99201.34;4154951;28;20021;-74
2024/02/22 05:38:00;;;;;;;8.60;2.47;;;12.90;99.90;;;12.30;100.00;99210.31;4154430;28;20037;-74
2024/02/22 05:40:02;;;;;;;10.15;1.30;;;12.90;99.90;;;12.29;100.00;99197.28;4154290;28;20142;-74
2024/02/22 05:42:03;;;;;;;6.03;0.85;;;12.90;99.90;;;12.33;100.00;99209.09;4154109;28;20030;-74
2024/02/22 05:44:04;;;;;;;3.78;0.82;;;12.90;99.90;;;12.34;100.00;99222.09;4164846;28;20033;-74
2024/02/22 05:46:05;;;;;;;10.40;1.10;;;12.90;99.90;;;12.32;100.00;99215.38;4159724;28;20038;-74
2024/02/22 05:48:07;;;;;;;10.38;2.55;;;12.90;99.90;;;12.31;100.00;99198.72;4154179;28;20034;-74
2024/02/22 05:50:09;;;;;;;9.48;1.70;;;12.90;99.90;;;12.33;100.00;99198.53;4152936;28;20057;-74
2024/02/22 05:52:11;;;;;;;8.35;1.58;;;12.90;99.90;;;12.32;100.00;99197.69;4152760;28;20034;-74
2024/02/22 05:54:12;;;;;;;4.68;1.00;;;12.90;99.90;;;12.33;100.00;99185.31;4162659;28;20114;-74
2024/02/22 05:56:14;;;;;;;5.05;0.70;;;12.90;99.90;;;12.30;100.00;99175.94;4153985;28;20478;-74
2024/02/22 05:58:17;;;;;;;2.53;0.88;;;12.90;99.90;;;12.27;100.00;99189.56;4153967;28;20014;-74
2024/02/22 06:00:18;;;;;;;7.30;1.85;;;12.90;99.90;;;12.32;100.00;99165.97;4152429;28;20547;-74
2024/02/22 06:02:19;;;;;;;7.38;1.50;;;12.90;99.90;;;12.32;100.00;99178.38;4153977;28;20029;-74
2024/02/22 06:04:20;;;;;;;4.57;1.10;;;12.90;99.90;;;12.31;100.00;99168.81;4160203;28;20535;-73
2024/02/22 06:06:21;;;;;;;6.90;1.13;;;12.90;99.90;;;12.33;100.00;99167.59;4152750;28;20033;-74
2024/02/22 06:08:22;;;;;;;6.15;1.05;;;12.90;99.90;;;12.36;100.00;99161.91;4168779;28;20033;-73
2024/02/22 06:10:23;;;;;;;4.28;0.80;;;12.90;99.90;;;12.29;100.00;99155.81;4153804;28;20069;-73
2024/02/22 06:12:24;;;;;;;6.13;0.98;;;12.90;99.90;;;12.32;100.00;99150.09;4136323;28;20104;-74
2024/02/22 06:14:25;;;;;;;5.68;1.10;;;12.90;99.90;;;12.32;100.00;99152.75;4167558;28;20022;-73
2024/02/22 06:16:26;;;;;;;5.47;1.10;;;12.90;99.90;;;12.35;100.00;99154.16;4168899;28;20029;-73
2024/02/22 06:18:27;;;;;;;8.25;1.42;;;12.90;99.90;;;12.37;100.00;99133.59;4168951;28;20558;-74
2024/02/22 06:20:28;;;;;;;8.63;1.70;;;12.90;99.90;;;12.37;100.00;99134.44;4168844;28;20029;-74
2024/02/22 06:22:28;;;;;;;11.75;2.47;;;12.90;99.90;;;12.39;100.00;99131.59;4158845;28;20025;-73
2024/02/22 06:24:29;;;;;;;8.25;1.40;;;12.90;99.90;;;12.35;100.00;99135.66;4154737;28;20026;-74
2024/02/22 06:26:33;;;;;;;10.38;1.23;;;12.90;99.90;;;12.34;100.00;99105.75;4152516;28;20041;-74
2024/02/22 06:28:34;;;;;;;11.18;1.40;;;12.90;99.90;;;12.39;100.00;99111.25;4152386;28;20065;-73
2024/02/22 06:30:35;;;;;;;11.02;2.08;;;12.90;99.90;;;12.38;100.00;99100.88;4168603;28;20159;-74
2024/02/22 06:32:36;;;;;;;9.48;2.10;;;12.90;99.90;;;12.44;100.00;99089.47;4168583;28;20030;-74
2024/02/22 06:34:37;;;;;;;7.28;1.33;;;12.90;99.90;;;12.36;100.00;99082.59;4168715;28;20030;-74
2024/02/22 06:36:38;;;;;;;11.35;2.15;;;13.00;99.90;;;12.32;100.00;99080.53;4152092;28;20091;-74
2024/02/22 06:38:45;;;;;;;7.90;1.10;;;12.90;99.90;;;12.35;100.00;99088.88;4163198;28;20025;-74
2024/02/22 06:40:48;;;;;;;8.43;0.90;;;12.90;99.90;;;12.37;100.00;99080.72;4151856;28;20029;-74
2024/02/22 06:42:49;;;;;;;11.88;1.02;;;12.90;99.90;;;12.35;100.00;99085.41;4170254;28;20021;-73
2024/02/22 06:44:52;;;;;;;10.15;1.05;;;12.90;99.90;;;12.32;100.00;99070.78;4161027;28;20041;-73
2024/02/22 06:46:53;;;;;;;5.53;1.17;;;12.90;99.90;;;12.35;100.00;99072.19;4157519;28;20033;-73
2024/02/22 06:48:53;;;;;;;8.27;0.98;;;13.00;99.90;;;12.32;100.00;99059.41;4153251;28;20421;-74
2024/02/22 06:50:54;;;;;;;5.32;0.73;;;12.90;99.90;;;12.34;100.00;99054.69;4168421;28;20037;-74
2024/02/22 06:52:55;;;;;;;6.88;1.70;;;12.90;99.90;;;12.33;100.00;99037.22;4169523;28;20524;-74
2024/02/22 06:54:56;;;;;;;3.65;0.80;;;12.90;99.90;;;12.32;100.00;99049.63;4157587;28;20030;-73
2024/02/22 06:56:57;;;;;;;4.75;1.00;;;12.90;99.90;;;12.32;100.00;99041.69;4159811;28;20021;-74
2024/02/22 06:58:58;;;;;;;4.10;0.85;;;12.90;99.90;;;12.33;100.00;99029.31;4152896;28;20029;-73
2024/02/22 07:00:59;;;;;;;7.55;0.70;;;12.90;99.90;;;12.31;100.00;99036.59;4153060;28;20037;-74
2024/02/22 07:03:00;;;;;;;3.50;0.93;;;12.90;99.90;;;12.31;100.00;99031.31;4155816;28;20033;-73
2024/02/22 07:05:01;;;;;;;5.28;0.57;;;12.90;99.90;;;12.29;100.00;99002.47;4154381;28;20038;-74
2024/02/22 07:07:02;;;;;;;4.60;0.60;;;12.90;99.90;;;12.34;100.00;99010.56;4153375;28;20393;-73
2024/02/22 07:09:03;;;;;;;4.65;0.60;;;12.90;99.90;;;12.33;100.00;99014.25;4152941;28;20044;-73
2024/02/22 07:11:04;;;;;;;9.43;1.00;;;12.90;99.90;;;12.39;100.00;99005.47;4151683;28;20030;-74
2024/02/22 07:13:05;;;;;;;4.70;1.25;;;12.90;99.90;;;12.39;100.00;99004.66;4154914;28;20029;-74
2024/02/22 07:15:06;;;;;;;12.07;1.35;;;13.00;99.90;;;12.36;100.00;98997.97;4169054;28;20025;-73
2024/02/22 07:17:07;;;;;;;11.27;2.00;;;12.90;99.90;;;12.36;100.00;99007.72;4167996;28;20037;-74
2024/02/22 07:19:08;;;;;;;6.70;1.15;;;12.90;99.90;;;12.35;100.00;99001.63;4168052;28;20026;-73
2024/02/22 07:21:09;;;;;;;11.18;1.35;;;13.00;99.90;;;12.38;100.00;98990.63;4167711;28;20033;-73
2024/02/22 07:23:11;;;;;;;10.55;2.00;;;13.00;99.90;;;12.40;100.00;98996.50;4165945;28;20414;-74
2024/02/22 07:25:12;;;;;;;10.52;1.48;;;13.00;99.90;;;12.44;100.00;98986.31;4155834;28;20108;-74
2024/02/22 07:27:13;;;;;;;8.57;1.45;;;13.00;99.90;;;12.44;100.00;98991.63;4167774;28;20033;-73
2024/02/22 07:29:14;;;;;;;5.72;1.35;;;13.00;99.90;;;12.45;100.00;98977.38;4168909;28;20088;-74
2024/02/22 07:31:15;;;;;;;8.40;1.15;;;13.00;99.90;;;12.39;100.00;98965.81;4167748;28;20022;-73
2024/02/22 07:33:16;;;;;;;4.68;0.93;;;13.00;99.90;;;12.36;100.00;98960.97;4167867;28;20021;-74
2024/02/22 07:35:17;;;;;;;6.07;1.00;;;13.00;99.90;;;12.48;100.00;98974.31;4157962;28;20441;-73
2024/02/22 07:37:18;;;;;;;6.47;1.20;;;13.00;99.90;;;12.47;100.00;98967.41;4164997;28;20033;-73
2024/02/22 07:39:20;;;;;;;8.27;1.27;;;13.00;99.90;;;12.51;100.00;98958.03;4167661;28;20017;-73
2024/02/22 07:41:22;;;;;;;3.72;0.70;;;13.00;99.90;;;12.55;100.00;98969.78;4168981;28;20511;-73
2024/02/22 07:43:23;;;;;;;5.63;0.90;;;13.00;99.90;;;12.47;100.00;98951.53;4168575;28;20091;-73
2024/02/22 07:45:28;;;;;;;8.80;1.25;;;13.00;99.90;;;12.51;100.00;98947.44;4167214;28;20029;-74
2024/02/22 07:47:28;;;;;;;5.97;0.75;;;13.00;99.90;;;12.45;100.00;98938.53;4167416;28;20087;-73
2024/02/22 07:49:29;;;;;;;8.35;1.33;;;13.00;99.90;;;12.47;100.00;98951.53;4152081;28;20457;-73
2024/02/22 07:51:30;;;;;;;6.18;1.83;;;13.00;99.90;;;12.46;100.00;98939.31;4152423;28;20034;-74
2024/02/22 07:53:34;;;;;;;10.52;1.60;;;13.10;99.90;;;12.52;100.00;98946.41;4157501;28;20029;-73
2024/02/22 07:55:36;;;;;;;10.10;2.03;;;13.00;99.90;;;12.49;100.00;98941.53;4152521;28;20026;-74
2024/02/22 07:57:37;;;;;;;13.88;2.35;;;13.00;99.90;;;12.50;100.00;98924.66;4152379;28;20065;-73
2024/02/22 07:59:39;;;;;;;12.25;1.77;;;13.00;99.90;;;12.51;100.00;98921.81;4152120;28;20023;-73
2024/02/22 08:01:40;;;;;;;8.25;2.03;;;13.00;99.90;;;12.51;100.00;98915.72;4152193;28;20037;-74
2024/02/22 08:03:42;;;;;;;11.18;1.80;;;13.00;99.90;;;12.51;100.00;98902.50;4156583;28;20014;-74
2024/02/22 08:05:43;;;;;;;7.72;2.13;;;13.00;99.90;;;12.48;100.00;98901.09;4152265;28;20030;-73
2024/02/22 08:07:44;;;;;;;9.52;1.48;;;13.00;99.90;;;12.50;100.00;98888.44;4154967;28;20032;-73
2024/02/22 08:09:44;;;;;;;11.00;1.67;;;13.00;99.90;;;12.52;100.00;98890.88;4170646;28;20571;-73
2024/02/22 08:11:45;;;;;;;9.38;1.80;;;13.00;99.90;;;12.53;100.00;98893.31;4151101;28;20030;-73
2024/02/22 08:13:46;;;;;;;11.63;1.60;;;13.00;99.90;;;12.54;100.00;98883.56;4154196;28;20037;-73
2024/02/22 08:15:49;;;;;;;11.02;2.00;;;13.10;99.90;;;12.53;100.00;98866.88;4152005;28;20030;-74
2024/02/22 08:17:49;;;;;;;11.48;1.75;;;13.00;99.90;;;12.51;100.00;98868.09;4152300;28;20105;-73
2024/02/22 08:19:50;;;;;;;7.97;1.40;;;13.10;99.90;;;12.56;100.00;98865.63;4150982;28;20510;-74
2024/02/22 08:21:51;;;;;;;11.82;2.17;;;13.00;99.90;;;12.55;100.00;98848.13;4154501;28;20505;-74
2024/02/22 08:23:55;;;;;;;10.85;1.27;;;13.10;99.90;;;12.51;100.00;98829.25;4176847;28;20021;-74